Terminal Aerodrome Forecast
Issued by NWS San Angelo, TX

Home | Current Version | Previous Version | Text Only | Print | Product List | Glossary On
Versions: 1 2 3 4 5 6 7 8 9 10 11 12 13 14
000
FTUS44 KSJT 230500
TAFSJT
TAF
KSJT 230520Z 2306/2406 13004KT P6SM BKN250
     FM231800 14008G14KT P6SM BKN250
     FM240000 12007KT P6SM OVC250=

USA.gov is the U.S. government's official web portal to all federal, state and local government web resources and services.